createdAt,value
2023-01-29T00:02:27.569Z,3.89
2023-01-29T00:22:33.848Z,4.23
2023-01-29T00:42:39.590Z,4.93
2023-01-29T01:02:45.380Z,4.48
2023-01-29T01:22:51.122Z,4.25
2023-01-29T01:42:56.876Z,4.67
2023-01-29T02:03:02.618Z,5.13
2023-01-29T02:23:08.346Z,4.59
2023-01-29T02:43:14.109Z,5.85
2023-01-29T03:03:19.918Z,4.25
2023-01-29T03:23:25.680Z,3.97
2023-01-29T03:43:31.523Z,3.92
2023-01-29T04:03:37.433Z,6.33
2023-01-29T04:23:43.251Z,4.38
2023-01-29T04:43:49.033Z,3.52
2023-01-29T05:03:54.847Z,2.48
2023-01-29T05:24:00.697Z,1.56
2023-01-29T05:44:06.451Z,1.39
2023-01-29T06:04:12.197Z,2.46
2023-01-29T06:24:18.001Z,2.44
2023-01-29T06:44:23.819Z,3.35
2023-01-29T07:04:29.710Z,5.93
2023-01-29T07:24:35.522Z,7.12
2023-01-29T07:44:41.318Z,4.54
2023-01-29T08:04:47.092Z,4.33
2023-01-29T08:24:53.957Z,4.16
2023-01-29T08:44:58.175Z,4.43
2023-01-29T09:05:04.011Z,4.47
2023-01-29T09:25:09.841Z,4.54
2023-01-29T09:45:16.165Z,4.23
2023-01-29T10:05:20.911Z,4.61
2023-01-29T10:25:26.683Z,4.69
2023-01-29T10:45:32.483Z,5.81
2023-01-29T11:05:39.276Z,5.08
2023-01-29T11:25:45.109Z,4.13
2023-01-29T11:45:50.934Z,4.87
2023-01-29T12:05:56.843Z,4.78
2023-01-29T12:26:02.804Z,5.84
2023-01-29T12:46:08.807Z,4.87
2023-01-29T13:06:14.708Z,5.21
2023-01-29T13:26:20.427Z,5.71
2023-01-29T13:46:26.191Z,4.07
2023-01-29T14:06:31.935Z,4.83
2023-01-29T14:26:37.714Z,5.19
2023-01-29T14:46:43.449Z,6.08
2023-01-29T15:06:49.239Z,8.45
2023-01-29T15:26:55.036Z,7.29
2023-01-29T15:47:00.859Z,7.66
2023-01-29T16:07:06.547Z,8.47
2023-01-29T16:27:12.532Z,10.17
2023-01-29T16:47:18.259Z,7.70
2023-01-29T17:07:24.057Z,6.61
2023-01-29T17:27:29.887Z,7.83
2023-01-29T17:47:35.638Z,8.38
2023-01-29T18:07:41.419Z,7.38
2023-01-29T18:27:47.163Z,8.48
2023-01-29T18:47:53.120Z,7.45
2023-01-29T19:07:58.854Z,8.24
2023-01-29T19:28:04.598Z,9.74
2023-01-29T19:48:10.406Z,9.40
2023-01-29T20:08:16.452Z,11.19
2023-01-29T20:28:22.203Z,10.44
2023-01-29T20:48:28.002Z,10.75
2023-01-29T21:08:33.731Z,11.75
2023-01-29T21:28:39.488Z,11.48
2023-01-29T21:48:45.249Z,14.53
2023-01-29T22:08:51.340Z,14.04
2023-01-29T22:28:57.117Z,16.19
2023-01-29T22:49:02.840Z,14.86
2023-01-29T23:09:08.579Z,13.66
2023-01-29T23:29:14.387Z,15.34
2023-01-29T23:49:20.088Z,14.53
